createdAt,value
2018-11-03T00:00:19.456Z,5.30
2018-11-03T00:02:48.154Z,5.30
2018-11-03T00:05:17.406Z,5.20
2018-11-03T00:07:46.815Z,5.30
2018-11-03T00:10:15.478Z,5.20
2018-11-03T00:12:44.095Z,5.20
2018-11-03T00:15:12.791Z,5.30
2018-11-03T00:17:41.740Z,5.30
2018-11-03T00:20:10.395Z,5.30
2018-11-03T00:22:38.998Z,5.30
2018-11-03T00:25:08.371Z,5.30
2018-11-03T00:27:37.000Z,5.30
2018-11-03T00:30:07.943Z,5.30
2018-11-03T00:32:36.528Z,5.30
2018-11-03T00:35:05.275Z,5.30
2018-11-03T00:37:35.230Z,5.30
2018-11-03T00:40:03.897Z,5.20
2018-11-03T00:42:32.446Z,5.20
2018-11-03T00:45:01.012Z,5.10
2018-11-03T00:47:29.600Z,5.10
2018-11-03T00:49:58.236Z,5.10
2018-11-03T00:52:26.755Z,5.00
2018-11-03T00:54:55.351Z,5.00
2018-11-03T00:57:23.880Z,5.00
2018-11-03T00:59:52.419Z,5.00
2018-11-03T01:02:20.965Z,4.90
2018-11-03T01:04:49.795Z,4.90
2018-11-03T01:07:18.356Z,4.90
2018-11-03T01:09:47.019Z,4.80
2018-11-03T01:12:15.677Z,4.80
2018-11-03T01:14:44.341Z,4.80
2018-11-03T01:17:12.843Z,4.70
2018-11-03T01:19:41.470Z,4.70
2018-11-03T01:22:10.080Z,4.70
2018-11-03T01:24:38.647Z,4.60
2018-11-03T01:27:07.240Z,4.50
2018-11-03T01:29:35.824Z,4.50
2018-11-03T01:32:04.389Z,4.40
2018-11-03T01:34:32.950Z,4.30
2018-11-03T01:37:01.535Z,4.40
2018-11-03T01:39:30.080Z,4.40
2018-11-03T01:41:58.630Z,4.40
2018-11-03T01:44:27.211Z,4.40
2018-11-03T01:46:55.803Z,4.40
2018-11-03T01:49:24.646Z,4.40
2018-11-03T01:51:53.584Z,4.40
2018-11-03T01:54:22.288Z,4.40
2018-11-03T01:56:51.578Z,4.40
2018-11-03T01:59:20.132Z,4.40
2018-11-03T02:01:48.700Z,4.40
2018-11-03T02:04:17.279Z,4.30
2018-11-03T02:06:45.910Z,4.30
2018-11-03T02:09:14.457Z,4.30
2018-11-03T02:11:43.042Z,4.30
2018-11-03T02:14:11.595Z,4.30
2018-11-03T02:16:40.163Z,4.30
2018-11-03T02:19:08.683Z,4.30
2018-11-03T02:21:37.269Z,4.30
2018-11-03T02:24:06.189Z,4.30
2018-11-03T02:26:34.769Z,4.40
2018-11-03T02:29:03.377Z,4.50
2018-11-03T02:31:32.186Z,4.50
2018-11-03T02:34:00.956Z,4.40
2018-11-03T02:36:29.771Z,4.40
2018-11-03T02:38:58.566Z,4.40
2018-11-03T02:41:27.117Z,4.40
2018-11-03T02:44:02.671Z,4.40
2018-11-03T02:46:31.572Z,4.40
2018-11-03T02:49:00.352Z,4.40
2018-11-03T02:51:29.494Z,4.50
2018-11-03T02:53:58.162Z,4.40
2018-11-03T02:56:26.723Z,4.40
2018-11-03T02:58:55.324Z,4.30
2018-11-03T03:01:23.897Z,4.20
2018-11-03T03:03:52.553Z,4.20
2018-11-03T03:06:21.118Z,4.10
2018-11-03T03:08:49.703Z,4.00
2018-11-03T03:11:18.319Z,4.10
2018-11-03T03:13:46.949Z,4.00
2018-11-03T03:16:15.537Z,4.00
2018-11-03T03:18:44.653Z,3.90
2018-11-03T03:21:13.314Z,3.90
2018-11-03T03:23:41.955Z,3.90
2018-11-03T03:26:10.678Z,4.00
2018-11-03T03:28:39.633Z,3.80
2018-11-03T03:31:08.259Z,3.80
2018-11-03T03:33:37.003Z,3.80
2018-11-03T03:36:05.875Z,3.80
2018-11-03T03:38:34.478Z,3.90
2018-11-03T03:41:03.032Z,3.90
2018-11-03T03:43:31.573Z,3.90
2018-11-03T03:46:00.186Z,3.90
2018-11-03T03:48:28.795Z,3.90
2018-11-03T03:50:57.450Z,3.90
2018-11-03T03:53:26.064Z,3.90
2018-11-03T03:55:54.668Z,3.90
2018-11-03T03:58:23.281Z,3.90
2018-11-03T04:00:51.910Z,3.90
2018-11-03T04:03:20.448Z,3.90
2018-11-03T04:05:49.006Z,3.90
2018-11-03T04:08:17.686Z,3.90
2018-11-03T04:10:46.483Z,3.90
2018-11-03T04:13:15.323Z,3.80
2018-11-03T04:15:44.517Z,3.70
2018-11-03T04:18:13.555Z,3.70
2018-11-03T04:20:42.168Z,3.70
2018-11-03T04:23:10.728Z,3.70
2018-11-03T04:25:39.318Z,3.70
2018-11-03T04:28:07.880Z,3.70
2018-11-03T04:30:36.490Z,3.80
2018-11-03T04:33:05.190Z,3.70
2018-11-03T04:35:33.766Z,3.70
2018-11-03T04:38:02.360Z,3.70
2018-11-03T04:40:31.259Z,3.70
2018-11-03T04:42:59.831Z,3.70
2018-11-03T04:45:28.423Z,3.70
2018-11-03T04:47:57.040Z,3.70
2018-11-03T04:50:25.563Z,3.70
2018-11-03T04:52:54.219Z,3.70
2018-11-03T04:55:23.099Z,3.60
2018-11-03T04:57:51.718Z,3.60
2018-11-03T05:00:20.637Z,3.60
2018-11-03T05:02:49.193Z,3.70
2018-11-03T05:05:17.765Z,3.70
2018-11-03T05:07:46.357Z,3.80
2018-11-03T05:10:15.019Z,3.70
2018-11-03T05:12:43.594Z,3.80
2018-11-03T05:15:12.179Z,3.80
2018-11-03T05:17:40.767Z,3.70
2018-11-03T05:20:09.339Z,3.80
2018-11-03T05:22:37.930Z,3.90
2018-11-03T05:25:06.553Z,3.80
2018-11-03T05:27:35.145Z,3.80
2018-11-03T05:30:04.045Z,3.80
2018-11-03T05:32:32.677Z,3.90
2018-11-03T05:35:01.569Z,3.90
2018-11-03T05:37:30.222Z,3.90
2018-11-03T05:39:58.915Z,3.90
2018-11-03T05:42:27.567Z,3.90
2018-11-03T05:44:56.186Z,3.90
2018-11-03T05:47:24.765Z,3.90
2018-11-03T05:49:53.335Z,3.90
2018-11-03T05:52:21.859Z,3.90
2018-11-03T05:54:50.448Z,3.90
2018-11-03T05:57:19.006Z,3.90
2018-11-03T05:59:47.583Z,3.90
2018-11-03T06:02:16.148Z,4.00
2018-11-03T06:04:44.746Z,3.90
2018-11-03T06:07:13.398Z,3.90
2018-11-03T06:09:41.944Z,3.90
2018-11-03T06:12:10.527Z,3.90
2018-11-03T06:14:39.127Z,3.90
2018-11-03T06:17:07.929Z,3.80
2018-11-03T06:19:36.593Z,3.70
2018-11-03T06:22:05.409Z,3.50
2018-11-03T06:24:34.448Z,3.40
2018-11-03T06:27:03.102Z,3.40
2018-11-03T06:29:31.812Z,3.40
2018-11-03T06:32:00.367Z,3.40
2018-11-03T06:34:28.918Z,3.40
2018-11-03T06:36:57.472Z,3.30
2018-11-03T06:39:26.086Z,3.20
2018-11-03T06:41:54.621Z,3.20
2018-11-03T06:44:23.217Z,3.30
2018-11-03T06:46:51.798Z,3.40
2018-11-03T06:49:21.681Z,3.50
2018-11-03T06:51:51.451Z,3.50
2018-11-03T06:54:20.283Z,3.50
2018-11-03T06:56:48.920Z,3.50
2018-11-03T06:59:18.238Z,3.60
2018-11-03T07:01:46.816Z,3.70
2018-11-03T07:04:16.041Z,3.70
2018-11-03T07:06:44.771Z,3.80
2018-11-03T07:09:14.104Z,3.90
2018-11-03T07:11:42.992Z,4.00
2018-11-03T07:14:11.691Z,4.00
2018-11-03T07:16:40.338Z,4.10
2018-11-03T07:19:08.938Z,4.20
2018-11-03T07:21:37.979Z,4.20
2018-11-03T07:24:07.489Z,4.30
2018-11-03T07:26:36.253Z,4.40
2018-11-03T07:29:05.785Z,4.40
2018-11-03T07:31:34.724Z,4.60
2018-11-03T07:34:03.950Z,4.60
2018-11-03T07:36:36.144Z,4.70
2018-11-03T07:39:11.833Z,4.70
2018-11-03T07:41:44.214Z,4.70
2018-11-03T07:44:15.823Z,4.70
2018-11-03T07:46:44.458Z,4.70
2018-11-03T07:49:17.712Z,4.70
2018-11-03T07:51:47.630Z,4.70
2018-11-03T07:54:19.640Z,4.80
2018-11-03T07:56:52.008Z,4.90
2018-11-03T07:59:21.114Z,4.90
2018-11-03T08:02:00.224Z,5.00
2018-11-03T08:04:31.499Z,5.00
2018-11-03T08:07:18.670Z,5.10
2018-11-03T08:09:50.438Z,5.10
2018-11-03T08:12:20.957Z,5.20
2018-11-03T08:14:51.700Z,5.10
2018-11-03T08:17:20.578Z,5.20
2018-11-03T08:19:49.435Z,5.20
2018-11-03T08:22:18.555Z,5.20
2018-11-03T08:24:49.230Z,5.20
2018-11-03T08:27:18.995Z,5.20
2018-11-03T08:29:53.810Z,5.30
2018-11-03T08:32:23.547Z,5.30
2018-11-03T08:34:54.878Z,5.30
2018-11-03T08:37:25.510Z,5.40
2018-11-03T08:39:55.300Z,5.30
2018-11-03T08:42:26.368Z,5.30
2018-11-03T08:44:57.625Z,5.30
2018-11-03T08:47:28.554Z,5.40
2018-11-03T08:49:58.280Z,5.40
2018-11-03T08:52:28.198Z,5.40
2018-11-03T08:54:57.428Z,5.40
2018-11-03T08:57:27.663Z,5.40
2018-11-03T08:59:57.947Z,5.50
2018-11-03T09:02:27.988Z,5.60
2018-11-03T09:04:57.834Z,5.60
2018-11-03T09:07:27.795Z,5.70
2018-11-03T09:09:57.711Z,5.80
2018-11-03T09:12:27.616Z,5.90
2018-11-03T09:14:58.314Z,5.90
2018-11-03T09:17:29.501Z,6.00
2018-11-03T09:19:59.069Z,6.10
2018-11-03T09:22:30.875Z,6.30
2018-11-03T09:25:03.442Z,6.40
2018-11-03T09:27:33.888Z,6.50
2018-11-03T09:30:02.924Z,6.50
2018-11-03T09:32:31.580Z,6.60
2018-11-03T09:35:01.317Z,6.60
2018-11-03T09:37:33.392Z,6.60
2018-11-03T09:40:05.373Z,6.70
2018-11-03T09:42:35.982Z,6.80
2018-11-03T09:45:07.111Z,6.80
2018-11-03T09:47:37.546Z,6.90
2018-11-03T09:50:08.539Z,6.90
2018-11-03T09:52:39.197Z,6.90
2018-11-03T09:55:12.078Z,6.90
2018-11-03T09:57:41.069Z,6.90
2018-11-03T10:34:55.146Z,7.00
2018-11-03T10:37:24.131Z,7.70
2018-11-03T10:39:52.569Z,7.80
2018-11-03T10:42:21.163Z,7.80
2018-11-03T10:44:50.053Z,7.80
2018-11-03T10:47:18.678Z,7.90
2018-11-03T10:49:47.421Z,8.00
2018-11-03T10:52:15.796Z,8.00
2018-11-03T10:57:28.452Z,8.10
2018-11-03T10:59:56.716Z,8.20
2018-11-03T11:02:30.611Z,8.20
2018-11-03T11:06:07.560Z,8.20
2018-11-03T11:08:41.246Z,8.30
2018-11-03T11:11:14.852Z,8.40
2018-11-03T11:13:43.947Z,8.30
2018-11-03T11:16:12.448Z,8.40
2018-11-03T11:18:40.931Z,8.40
2018-11-03T11:21:09.294Z,8.40
2018-11-03T11:23:37.747Z,8.50
2018-11-03T11:26:06.016Z,8.60
2018-11-03T11:28:34.378Z,8.60
2018-11-03T11:31:02.802Z,8.60
2018-11-03T11:33:31.100Z,8.70
2018-11-03T11:35:59.463Z,8.80
2018-11-03T11:38:28.323Z,8.70
2018-11-03T11:40:56.903Z,8.60
2018-11-03T11:43:25.869Z,8.70
2018-11-03T11:45:54.415Z,8.90
2018-11-03T11:48:23.356Z,9.00
2018-11-03T11:50:51.770Z,8.90
2018-11-03T11:53:20.087Z,8.90
2018-11-03T11:55:48.501Z,9.10
2018-11-03T11:58:16.872Z,9.20
2018-11-03T12:00:45.361Z,9.20
2018-11-03T12:03:13.673Z,9.10
2018-11-03T12:05:42.089Z,9.20
2018-11-03T12:08:10.434Z,9.20
2018-11-03T12:10:38.714Z,9.40
2018-11-03T12:13:06.991Z,9.50
2018-11-03T12:15:35.585Z,9.50
2018-11-03T12:18:04.045Z,9.60
2018-11-03T12:20:32.588Z,9.60
2018-11-03T12:23:01.167Z,9.60
2018-11-03T12:25:29.545Z,9.60
2018-11-03T12:27:57.841Z,9.60
2018-11-03T12:30:26.510Z,9.70
2018-11-03T12:32:54.960Z,9.80
2018-11-03T12:35:23.361Z,9.90
2018-11-03T12:37:51.754Z,9.80
2018-11-03T12:40:20.138Z,9.90
2018-11-03T12:42:48.473Z,10.00
2018-11-03T12:45:16.847Z,10.10
2018-11-03T12:47:45.324Z,10.10
2018-11-03T12:50:15.190Z,10.00
2018-11-03T12:52:44.152Z,10.00
2018-11-03T12:55:12.945Z,10.00
2018-11-03T12:57:42.005Z,9.90
2018-11-03T13:00:14.033Z,10.00
2018-11-03T13:02:43.735Z,10.00
2018-11-03T13:05:12.491Z,10.10
2018-11-03T13:07:42.249Z,10.00
2018-11-03T13:10:11.371Z,10.00
2018-11-03T13:12:41.031Z,10.10
2018-11-03T13:15:11.187Z,10.20
2018-11-03T13:17:40.547Z,10.10
2018-11-03T13:20:10.988Z,10.10
2018-11-03T13:22:39.496Z,10.00
2018-11-03T13:25:08.323Z,10.00
2018-11-03T13:27:36.676Z,10.10
2018-11-03T13:30:05.267Z,10.00
2018-11-03T13:32:33.607Z,10.00
2018-11-03T13:35:02.027Z,10.00
2018-11-03T13:37:30.280Z,10.00
2018-11-03T13:39:58.585Z,10.00
2018-11-03T13:42:26.906Z,10.10
2018-11-03T13:44:55.251Z,10.10
2018-11-03T13:47:23.885Z,10.10
2018-11-03T13:49:52.742Z,10.10
2018-11-03T13:52:21.046Z,10.00
2018-11-03T13:54:49.619Z,10.00
2018-11-03T13:57:18.317Z,10.10
2018-11-03T13:59:46.801Z,10.00
2018-11-03T14:02:15.234Z,10.00
2018-11-03T14:04:43.503Z,9.90
2018-11-03T14:07:11.844Z,9.90
2018-11-03T14:09:40.206Z,9.90
2018-11-03T14:12:08.515Z,10.00
2018-11-03T14:14:36.857Z,10.10
2018-11-03T14:17:05.317Z,10.20
2018-11-03T14:19:33.609Z,10.10
2018-11-03T14:22:02.221Z,10.10
2018-11-03T14:24:30.582Z,10.10
2018-11-03T14:26:59.951Z,10.10
2018-11-03T14:29:28.973Z,10.10
2018-11-03T14:31:57.384Z,10.20
2018-11-03T14:34:26.949Z,10.20
2018-11-03T14:36:55.894Z,10.10
2018-11-03T14:39:24.258Z,10.00
2018-11-03T14:41:52.637Z,10.00
2018-11-03T14:44:20.901Z,10.00
2018-11-03T14:46:49.249Z,9.90
2018-11-03T14:49:17.547Z,9.90
2018-11-03T14:51:45.852Z,9.90
2018-11-03T14:54:14.547Z,9.70
2018-11-03T14:56:43.088Z,9.70
2018-11-03T14:59:11.431Z,9.60
2018-11-03T15:01:39.857Z,9.40
2018-11-03T15:04:08.511Z,9.50
2018-11-03T15:06:36.875Z,9.40
2018-11-03T15:09:08.232Z,9.40
2018-11-03T15:11:37.119Z,9.40
2018-11-03T15:14:06.067Z,9.40
2018-11-03T15:16:35.120Z,9.30
2018-11-03T15:19:03.580Z,9.20
2018-11-03T15:21:32.454Z,9.10
2018-11-03T15:24:00.863Z,9.00
2018-11-03T15:26:29.320Z,8.90
2018-11-03T15:28:57.651Z,8.90
2018-11-03T15:31:26.015Z,8.80
2018-11-03T15:33:54.488Z,8.70
2018-11-03T15:36:22.910Z,8.60
2018-11-03T15:38:51.549Z,8.60
2018-11-03T15:41:19.970Z,8.50
2018-11-03T15:43:48.485Z,8.50
2018-11-03T15:46:17.265Z,8.40
2018-11-03T15:48:46.019Z,8.40
2018-11-03T15:51:14.423Z,8.40
2018-11-03T15:53:42.941Z,8.20
2018-11-03T15:56:11.450Z,8.20
2018-11-03T15:58:39.916Z,8.20
2018-11-03T16:01:08.348Z,8.20
2018-11-03T16:03:37.202Z,8.10
2018-11-03T16:06:05.613Z,8.10
2018-11-03T16:08:34.188Z,8.10
2018-11-03T16:11:02.540Z,8.00
2018-11-03T16:13:30.959Z,8.00
2018-11-03T16:15:59.404Z,7.90
2018-11-03T16:18:27.767Z,7.90
2018-11-03T16:20:56.121Z,7.80
2018-11-03T16:23:24.459Z,7.80
2018-11-03T16:25:52.887Z,7.80
2018-11-03T16:28:21.321Z,7.70
2018-11-03T16:30:50.804Z,7.70
2018-11-03T16:33:19.169Z,7.60
2018-11-03T16:35:47.722Z,7.60
2018-11-03T16:38:16.225Z,7.50
2018-11-03T16:40:44.697Z,7.50
2018-11-03T16:43:13.032Z,7.40
2018-11-03T16:45:42.034Z,7.40
2018-11-03T16:48:10.362Z,7.40
2018-11-03T16:50:38.740Z,7.30
2018-11-03T16:53:07.280Z,7.30
2018-11-03T16:55:35.751Z,7.20
2018-11-03T16:58:04.042Z,7.20
2018-11-03T17:00:32.359Z,7.10
2018-11-03T17:03:00.754Z,7.10
2018-11-03T17:05:29.122Z,7.10
2018-11-03T17:07:57.456Z,7.10
2018-11-03T17:10:26.173Z,7.00
2018-11-03T17:12:54.620Z,6.90
2018-11-03T17:15:23.066Z,6.90
2018-11-03T17:17:51.696Z,6.80
2018-11-03T17:20:20.456Z,6.80
2018-11-03T17:22:48.980Z,6.80
2018-11-03T17:25:20.187Z,6.70
2018-11-03T17:27:49.510Z,6.70
2018-11-03T17:30:18.700Z,6.60
2018-11-03T17:32:47.083Z,6.60
2018-11-03T17:35:15.421Z,6.50
2018-11-03T17:37:44.091Z,6.40
2018-11-03T17:40:13.076Z,6.30
2018-11-03T17:42:41.394Z,6.30
2018-11-03T17:45:10.858Z,6.30
2018-11-03T17:47:39.199Z,6.20
2018-11-03T17:50:09.560Z,6.20
2018-11-03T17:52:38.142Z,6.20
2018-11-03T17:55:07.186Z,6.20
2018-11-03T17:57:35.880Z,6.10
2018-11-03T18:00:05.881Z,6.10
2018-11-03T18:02:34.423Z,6.10
2018-11-03T18:05:03.255Z,6.10
2018-11-03T18:07:31.758Z,6.00
2018-11-03T18:10:00.855Z,6.00
2018-11-03T18:12:29.327Z,6.00
2018-11-03T18:14:57.846Z,6.00
2018-11-03T18:17:26.168Z,6.00
2018-11-03T18:19:54.658Z,6.00
2018-11-03T18:22:22.992Z,5.90
2018-11-03T18:24:51.284Z,6.00
2018-11-03T18:27:19.565Z,5.90
2018-11-03T18:29:48.073Z,5.90
2018-11-03T18:32:16.355Z,5.90
2018-11-03T18:34:44.715Z,5.90
2018-11-03T18:37:12.969Z,5.80
2018-11-03T18:39:41.317Z,5.80
2018-11-03T18:42:11.129Z,5.80
2018-11-03T18:44:39.423Z,5.80
2018-11-03T18:47:07.809Z,5.70
2018-11-03T18:49:36.259Z,5.70
2018-11-03T18:52:04.790Z,5.70
2018-11-03T18:54:33.184Z,5.60
2018-11-03T18:57:01.456Z,5.60
2018-11-03T18:59:29.733Z,5.50
2018-11-03T19:01:57.983Z,5.50
2018-11-03T19:04:26.410Z,5.50
2018-11-03T19:06:54.727Z,5.50
2018-11-03T19:09:23.163Z,5.50
2018-11-03T19:11:51.418Z,5.50
2018-11-03T19:14:19.762Z,5.50
2018-11-03T19:16:48.060Z,5.50
2018-11-03T19:19:16.525Z,5.50
2018-11-03T19:21:44.976Z,5.50
2018-11-03T19:24:13.286Z,5.50
2018-11-03T19:26:41.662Z,5.50
2018-11-03T19:29:10.143Z,5.50
2018-11-03T19:31:38.484Z,5.40
2018-11-03T19:34:06.778Z,5.40
2018-11-03T19:36:35.069Z,5.40
2018-11-03T19:39:04.202Z,5.40
2018-11-03T19:41:32.538Z,5.30
2018-11-03T19:44:00.841Z,5.30
2018-11-03T19:46:29.257Z,5.30
2018-11-03T19:48:57.599Z,5.20
2018-11-03T19:51:25.878Z,5.20
2018-11-03T19:53:54.163Z,5.20
2018-11-03T19:56:22.462Z,5.10
2018-11-03T19:58:50.844Z,5.10
2018-11-03T20:01:19.287Z,5.10
2018-11-03T20:03:47.645Z,5.10
2018-11-03T20:06:16.243Z,5.00
2018-11-03T20:08:44.574Z,4.90
2018-11-03T20:11:12.864Z,4.90
2018-11-03T20:13:41.212Z,4.90
2018-11-03T20:16:09.520Z,4.90
2018-11-03T20:18:37.819Z,4.90
2018-11-03T20:21:06.238Z,4.80
2018-11-03T20:23:34.499Z,4.80
2018-11-03T20:26:02.797Z,4.80
2018-11-03T20:28:31.052Z,4.80
2018-11-03T20:30:59.343Z,4.80
2018-11-03T20:33:27.651Z,4.70
2018-11-03T20:35:56.208Z,4.70
2018-11-03T20:38:24.546Z,4.70
2018-11-03T20:40:52.979Z,4.70
2018-11-03T20:43:21.377Z,4.70
2018-11-03T20:45:49.769Z,4.70
2018-11-03T20:48:18.167Z,4.60
2018-11-03T20:50:46.588Z,4.60
2018-11-03T20:53:14.910Z,4.60
2018-11-03T20:55:43.193Z,4.60
2018-11-03T20:58:11.463Z,4.50
2018-11-03T21:00:39.784Z,4.50
2018-11-03T21:03:08.327Z,4.50
2018-11-03T21:05:37.632Z,4.50
2018-11-03T21:08:06.447Z,4.50
2018-11-03T21:10:35.083Z,4.50
2018-11-03T21:13:03.502Z,4.50
2018-11-03T21:15:31.832Z,4.50
2018-11-03T21:18:00.422Z,4.50
2018-11-03T21:20:29.771Z,4.50
2018-11-03T21:22:58.379Z,4.50
2018-11-03T21:25:27.241Z,4.40
2018-11-03T21:27:56.270Z,4.40
2018-11-03T21:30:25.029Z,4.40
2018-11-03T21:32:53.835Z,4.40
2018-11-03T21:35:22.628Z,4.40
2018-11-03T21:37:51.136Z,4.40
2018-11-03T21:40:23.183Z,4.40
2018-11-03T21:42:53.162Z,4.40
2018-11-03T21:45:21.834Z,4.40
2018-11-03T21:47:50.111Z,4.40
2018-11-03T21:50:18.498Z,4.30
2018-11-03T21:52:46.753Z,4.30
2018-11-03T21:55:15.408Z,4.30
2018-11-03T21:57:43.773Z,4.20
2018-11-03T22:00:14.127Z,4.20
2018-11-03T22:02:44.409Z,4.20
2018-11-03T22:05:13.767Z,4.10
2018-11-03T22:07:47.643Z,4.10
2018-11-03T22:13:33.024Z,4.10
2018-11-03T22:16:15.347Z,4.00
2018-11-03T22:18:58.230Z,4.10
2018-11-03T22:21:27.982Z,4.00
2018-11-03T22:23:58.544Z,3.90
2018-11-03T22:26:27.792Z,3.90
2018-11-03T22:29:05.682Z,3.90
2018-11-03T22:31:36.759Z,3.90
2018-11-03T22:34:08.213Z,3.90
2018-11-03T22:36:36.795Z,3.90
2018-11-03T22:39:07.835Z,3.90
2018-11-03T22:41:36.485Z,3.90
2018-11-03T22:44:05.117Z,3.90
2018-11-03T22:46:35.121Z,3.90
2018-11-03T22:49:03.648Z,3.90
2018-11-03T22:51:32.660Z,3.90
2018-11-03T22:54:01.091Z,3.90
2018-11-03T22:56:29.672Z,3.90
2018-11-03T22:58:59.203Z,3.80
2018-11-03T23:01:27.700Z,3.80
2018-11-03T23:03:56.179Z,3.80
2018-11-03T23:06:31.370Z,3.70
2018-11-03T23:08:59.832Z,3.60
2018-11-03T23:11:28.730Z,3.60
2018-11-03T23:13:58.303Z,3.50
2018-11-03T23:16:35.623Z,3.50
2018-11-03T23:19:04.373Z,3.50
2018-11-03T23:21:34.051Z,3.40
2018-11-03T23:24:02.494Z,3.40
2018-11-03T23:26:31.046Z,3.40
2018-11-03T23:28:59.359Z,3.40
2018-11-03T23:31:27.945Z,3.40
2018-11-03T23:33:57.674Z,3.40
2018-11-03T23:36:27.425Z,3.40
2018-11-03T23:38:56.269Z,3.30
2018-11-03T23:41:25.243Z,3.30
2018-11-03T23:43:55.095Z,3.30
2018-11-03T23:46:23.620Z,3.30
2018-11-03T23:48:52.018Z,3.30
2018-11-03T23:51:20.314Z,3.30
2018-11-03T23:53:50.953Z,3.30
2018-11-03T23:56:19.268Z,3.30
2018-11-03T23:58:47.635Z,3.30
